createdAt,value
2022-11-21T00:00:19.386Z,96.4
2022-11-21T00:01:28.523Z,96.3
2022-11-21T00:02:38.643Z,96.3
2022-11-21T00:03:48.769Z,96.2
2022-11-21T00:04:58.892Z,96.2
2022-11-21T00:06:08.000Z,96.3
2022-11-21T00:07:19.127Z,96.4
2022-11-21T00:08:29.231Z,96.5
2022-11-21T00:09:39.350Z,96.4
2022-11-21T00:10:49.476Z,96.2
2022-11-21T00:11:59.598Z,96.2
2022-11-21T00:13:09.723Z,96.3
2022-11-21T00:15:29.942Z,96.3
2022-11-21T00:16:40.187Z,96.4
2022-11-21T00:17:50.314Z,96.4
2022-11-21T00:19:00.423Z,96.3
2022-11-21T00:20:10.551Z,96.2
2022-11-21T00:21:20.677Z,96.1
2022-11-21T00:22:30.779Z,96
2022-11-21T00:23:40.901Z,95.9
2022-11-21T00:24:51.016Z,95.8
2022-11-21T00:26:01.142Z,95.5
2022-11-21T00:27:11.262Z,95.6
2022-11-21T00:28:21.377Z,95.6
2022-11-21T00:29:31.502Z,95.6
2022-11-21T00:30:41.609Z,95.6
2022-11-21T00:31:50.749Z,95.7
2022-11-21T00:33:00.869Z,95.7
2022-11-21T00:34:10.990Z,95.9
2022-11-21T00:35:21.115Z,96
2022-11-21T00:36:31.234Z,96.1
2022-11-21T00:37:41.339Z,96.1
2022-11-21T00:38:51.465Z,96
2022-11-21T00:40:01.588Z,95.9
2022-11-21T00:41:11.696Z,95.8
2022-11-21T00:42:21.827Z,95.8
2022-11-21T00:43:31.952Z,96.1
2022-11-21T00:44:42.059Z,96.3
2022-11-21T00:45:52.171Z,96.5
2022-11-21T00:47:01.310Z,96.7
2022-11-21T00:48:11.432Z,96.6
2022-11-21T00:49:21.560Z,96.5
2022-11-21T00:50:31.665Z,96.4
2022-11-21T00:51:40.803Z,96.5
2022-11-21T00:52:50.925Z,96.6
2022-11-21T00:55:11.177Z,97.2
2022-11-21T00:56:21.285Z,97.2
2022-11-21T00:57:31.408Z,96.9
2022-11-21T00:58:41.524Z,97.3
2022-11-21T00:59:51.649Z,97.5
2022-11-21T01:01:01.756Z,97.5
2022-11-21T01:02:11.884Z,97
2022-11-21T01:03:22.008Z,97.2
2022-11-21T01:04:32.114Z,97.2
2022-11-21T01:05:42.238Z,97.2
2022-11-21T01:08:02.589Z,97.2
2022-11-21T01:09:12.714Z,97.2
2022-11-21T01:11:32.958Z,97
2022-11-21T01:12:42.095Z,97.1
2022-11-21T01:13:51.227Z,97
2022-11-21T01:15:01.353Z,97.1
2022-11-21T01:16:11.481Z,97
2022-11-21T01:17:21.597Z,96.8
2022-11-21T01:18:31.704Z,97
2022-11-21T01:19:41.832Z,97.1
2022-11-21T01:20:51.957Z,97.1
2022-11-21T01:22:02.064Z,97.3
2022-11-21T01:23:12.192Z,97.2
2022-11-21T01:24:22.294Z,96.9
2022-11-21T01:25:32.562Z,97
2022-11-21T01:26:42.812Z,97.1
2022-11-21T01:27:52.932Z,96.9
2022-11-21T01:29:03.038Z,96.8
2022-11-21T01:30:13.164Z,96.7
2022-11-21T01:31:23.285Z,96.5
2022-11-21T01:32:33.406Z,96.5
2022-11-21T01:33:43.520Z,96.8
2022-11-21T01:34:53.648Z,97.2
2022-11-21T01:36:03.764Z,97.6
2022-11-21T01:37:13.874Z,97.6
2022-11-21T01:39:34.128Z,97.8
2022-11-21T01:40:44.237Z,97.3
2022-11-21T01:41:53.374Z,97.8
2022-11-21T01:43:03.497Z,97.8
2022-11-21T01:44:13.600Z,97.5
2022-11-21T01:45:23.725Z,97.5
2022-11-21T01:46:33.846Z,97.1
2022-11-21T01:47:43.974Z,97.2
2022-11-21T01:48:54.079Z,97.2
2022-11-21T01:50:04.205Z,97.2
2022-11-21T01:51:14.333Z,97
2022-11-21T01:52:24.444Z,96.3
2022-11-21T01:53:34.555Z,96.1
2022-11-21T01:54:44.679Z,96.5
2022-11-21T01:55:54.803Z,97
2022-11-21T01:57:03.930Z,97.2
2022-11-21T01:58:14.058Z,97.1
2022-11-21T01:59:24.180Z,97.2
2022-11-21T02:00:34.280Z,97.3
2022-11-21T02:01:44.414Z,97.1
2022-11-21T02:02:54.536Z,97.5
2022-11-21T02:04:04.637Z,97.4
2022-11-21T02:05:14.766Z,97.3
2022-11-21T02:06:24.893Z,97.3
2022-11-21T02:07:34.999Z,97.3
2022-11-21T02:08:45.128Z,97.4
2022-11-21T02:09:55.235Z,97.4
2022-11-21T02:11:05.362Z,97.7
2022-11-21T02:12:14.000Z,97.5
2022-11-21T02:13:24.623Z,97.5
2022-11-21T02:14:34.723Z,97.5
2022-11-21T02:15:44.848Z,97.7
2022-11-21T02:16:54.972Z,98
2022-11-21T02:18:05.084Z,97.8
2022-11-21T02:19:15.214Z,97.7
2022-11-21T02:20:25.323Z,97.8
2022-11-21T02:21:35.448Z,97.5
2022-11-21T02:22:45.554Z,97.8
2022-11-21T02:23:55.680Z,97.5
2022-11-21T02:25:05.794Z,97.7
2022-11-21T02:26:15.915Z,97.5
2022-11-21T02:27:26.156Z,97.4
2022-11-21T02:28:36.285Z,97.3
2022-11-21T02:29:46.389Z,97.4
2022-11-21T02:30:56.518Z,97.3
2022-11-21T02:32:06.645Z,97.4
2022-11-21T02:33:16.765Z,97.2
2022-11-21T02:35:36.989Z,97.1
2022-11-21T02:36:47.117Z,97.1
2022-11-21T02:37:57.222Z,97.1
2022-11-21T02:39:07.347Z,96.9
2022-11-21T02:40:17.470Z,96.9
2022-11-21T02:41:27.594Z,97
2022-11-21T02:42:36.713Z,96.8
2022-11-21T02:43:46.843Z,96.9
2022-11-21T02:44:56.970Z,96.9
2022-11-21T02:46:07.074Z,96.8
2022-11-21T02:47:17.204Z,96.8
2022-11-21T02:48:27.310Z,96.8
2022-11-21T02:49:37.437Z,96.7
2022-11-21T02:50:47.546Z,96.5
2022-11-21T02:51:57.676Z,96.5
2022-11-21T02:53:07.782Z,96.7
2022-11-21T02:54:17.911Z,96.7
2022-11-21T02:55:28.023Z,96.7
2022-11-21T02:56:38.152Z,96.8
2022-11-21T02:57:47.273Z,96.9
2022-11-21T02:58:57.400Z,96.9
2022-11-21T03:00:07.528Z,96.9
2022-11-21T03:01:17.634Z,96.9
2022-11-21T03:02:27.766Z,97
2022-11-21T03:03:37.869Z,97.1
2022-11-21T03:04:47.996Z,97.1
2022-11-21T03:05:58.120Z,97
2022-11-21T03:07:08.225Z,97
2022-11-21T03:08:18.357Z,97
2022-11-21T03:09:28.469Z,97
2022-11-21T03:10:38.594Z,96.8
2022-11-21T03:11:48.704Z,96.9
2022-11-21T03:12:57.840Z,97
2022-11-21T03:14:07.960Z,97.2
2022-11-21T03:15:18.080Z,97.1
2022-11-21T03:16:28.208Z,97
2022-11-21T03:17:38.318Z,97.1
2022-11-21T03:18:48.445Z,97.1
2022-11-21T03:19:58.548Z,97.1
2022-11-21T03:21:08.678Z,97
2022-11-21T03:22:18.803Z,97.1
2022-11-21T03:23:28.911Z,97.2
2022-11-21T03:24:39.025Z,97.1
2022-11-21T03:25:49.150Z,97.1
2022-11-21T03:26:59.262Z,97.1
2022-11-21T03:28:08.411Z,97.1
2022-11-21T03:29:18.519Z,97.2
2022-11-21T03:30:28.647Z,97.2
2022-11-21T03:31:38.760Z,97.2
2022-11-21T03:32:48.887Z,97.1
2022-11-21T03:33:59.009Z,97.2
2022-11-21T03:35:09.115Z,97.1
2022-11-21T03:36:19.239Z,97
2022-11-21T03:37:29.348Z,97
2022-11-21T03:38:39.478Z,96.9
2022-11-21T03:39:49.604Z,96.9
2022-11-21T03:40:59.706Z,96.9
2022-11-21T03:42:09.831Z,96.8
2022-11-21T03:43:18.960Z,96.9
2022-11-21T03:45:39.196Z,97
2022-11-21T03:46:49.320Z,97.1
2022-11-21T03:47:59.442Z,97
2022-11-21T03:49:09.569Z,97.2
2022-11-21T03:50:19.688Z,97.2
2022-11-21T03:52:39.915Z,97
2022-11-21T03:53:50.035Z,97
2022-11-21T03:55:00.148Z,96.9
2022-11-21T03:56:10.272Z,96.8
2022-11-21T03:57:20.386Z,96.8
2022-11-21T03:58:29.519Z,96.8
2022-11-21T03:59:39.654Z,96.8
2022-11-21T04:00:49.772Z,96.8
2022-11-21T04:01:59.891Z,97.2
2022-11-21T04:03:09.998Z,97.2
2022-11-21T04:04:20.128Z,97
2022-11-21T04:05:30.235Z,97.1
2022-11-21T04:06:40.354Z,97.1
2022-11-21T04:07:50.484Z,97
2022-11-21T04:09:00.607Z,97.1
2022-11-21T04:10:10.728Z,96.9
2022-11-21T04:11:20.837Z,97
2022-11-21T04:12:30.963Z,96.8
2022-11-21T04:13:40.099Z,96.7
2022-11-21T04:14:50.220Z,96.5
2022-11-21T04:16:00.330Z,96.4
2022-11-21T04:17:10.442Z,96.5
2022-11-21T04:18:20.565Z,96.6
2022-11-21T04:19:30.693Z,96.6
2022-11-21T04:20:40.797Z,96.5
2022-11-21T04:21:50.926Z,96.5
2022-11-21T04:23:01.047Z,96.4
2022-11-21T04:24:11.158Z,96.4
2022-11-21T04:25:21.285Z,96.5
2022-11-21T04:26:31.408Z,96.4
2022-11-21T04:27:41.526Z,96.3
2022-11-21T04:28:50.653Z,96.3
2022-11-21T04:30:00.764Z,96.2
2022-11-21T04:31:10.888Z,96
2022-11-21T04:32:21.012Z,96.5
2022-11-21T04:33:31.137Z,96.9
2022-11-21T04:34:41.245Z,96.9
2022-11-21T04:35:51.367Z,96.7
2022-11-21T04:37:01.487Z,96.3
2022-11-21T04:38:11.609Z,96.2
2022-11-21T04:39:21.714Z,96.1
2022-11-21T04:41:41.960Z,96.5
2022-11-21T04:42:52.083Z,96.7
2022-11-21T04:44:01.216Z,96.6
2022-11-21T04:45:11.339Z,96.4
2022-11-21T04:46:20.472Z,96.2
2022-11-21T04:47:30.596Z,96
2022-11-21T04:48:40.701Z,95.7
2022-11-21T04:49:50.823Z,95.6
2022-11-21T04:51:00.951Z,95.5
2022-11-21T04:52:11.063Z,95.5
2022-11-21T04:53:21.192Z,95.5
2022-11-21T04:54:31.303Z,95.3
2022-11-21T04:55:41.430Z,95.4
2022-11-21T04:56:51.534Z,95.5
2022-11-21T04:58:01.656Z,95.3
2022-11-21T04:59:11.790Z,95.4
2022-11-21T05:00:21.905Z,95.6
2022-11-21T05:01:31.038Z,95.7
2022-11-21T05:02:41.145Z,95.8
2022-11-21T05:03:51.281Z,96.1
2022-11-21T05:05:01.390Z,96.4
2022-11-21T05:06:11.507Z,96.7
2022-11-21T05:07:21.630Z,97
2022-11-21T05:08:31.745Z,97.2
2022-11-21T05:09:41.871Z,97.2
2022-11-21T05:10:51.995Z,97.3
2022-11-21T05:12:02.096Z,97.4
2022-11-21T05:13:12.215Z,97.6
2022-11-21T05:14:22.344Z,97.7
2022-11-21T05:15:32.471Z,98.1
2022-11-21T05:16:41.603Z,98.2
2022-11-21T05:17:51.714Z,98.2
2022-11-21T05:19:01.826Z,98
2022-11-21T05:20:11.959Z,97.8
2022-11-21T05:21:22.080Z,97.7
2022-11-21T05:22:32.188Z,97.7
2022-11-21T05:23:42.310Z,97.5
2022-11-21T05:24:52.422Z,97.3
2022-11-21T05:26:02.543Z,97.3
2022-11-21T05:27:12.677Z,97.4
2022-11-21T05:28:22.788Z,97.7
2022-11-21T05:29:32.915Z,97.8
2022-11-21T05:30:43.024Z,97.8
2022-11-21T05:31:52.158Z,97.8
2022-11-21T05:33:02.284Z,97.8
2022-11-21T05:34:12.403Z,97.8
2022-11-21T05:35:22.506Z,97.9
2022-11-21T05:36:32.631Z,97.8
2022-11-21T05:37:42.755Z,97.7
2022-11-21T05:38:52.882Z,97.6
2022-11-21T05:40:02.990Z,97.6
2022-11-21T05:41:13.109Z,97.6
2022-11-21T05:43:33.352Z,97.7
2022-11-21T05:44:43.459Z,97.7
2022-11-21T05:45:53.591Z,97.9
2022-11-21T05:47:03.820Z,97.9
2022-11-21T05:48:13.941Z,97.7
2022-11-21T05:49:24.055Z,97.6
2022-11-21T05:50:34.182Z,97.8
2022-11-21T05:51:44.305Z,97.6
2022-11-21T05:52:54.431Z,97.6
2022-11-21T05:54:04.538Z,97.7
2022-11-21T05:55:14.664Z,97.5
2022-11-21T05:56:24.770Z,97.3
2022-11-21T05:57:34.902Z,97
2022-11-21T05:58:45.025Z,97
2022-11-21T05:59:55.132Z,97.1
2022-11-21T06:01:05.253Z,97.1
2022-11-21T06:02:14.386Z,96.9
2022-11-21T06:03:24.509Z,96.7
2022-11-21T06:04:34.632Z,96.8
2022-11-21T06:05:44.755Z,96.6
2022-11-21T06:06:54.867Z,96.7
2022-11-21T06:08:04.989Z,96.6
2022-11-21T06:09:15.095Z,96.5
2022-11-21T06:10:24.239Z,96.5
2022-11-21T06:11:33.391Z,96.6
2022-11-21T06:12:43.494Z,96.5
2022-11-21T06:13:53.621Z,96.8
2022-11-21T06:15:03.745Z,96.8
2022-11-21T06:16:13.850Z,96.8
2022-11-21T06:17:23.981Z,96.8
2022-11-21T06:18:33.117Z,96.8
2022-11-21T06:19:42.258Z,96.8
2022-11-21T06:20:52.378Z,96.8
2022-11-21T06:22:02.495Z,96.8
2022-11-21T06:23:12.617Z,96.8
2022-11-21T06:24:22.724Z,96.8
2022-11-21T06:25:32.845Z,96.7
2022-11-21T06:26:42.969Z,96.7
2022-11-21T06:27:53.099Z,96.6
2022-11-21T06:29:03.207Z,96.5
2022-11-21T06:30:13.330Z,96.8
2022-11-21T06:31:23.436Z,96.8
2022-11-21T06:32:33.572Z,96.7
2022-11-21T06:33:43.675Z,96.6
2022-11-21T06:34:52.819Z,96.5
2022-11-21T06:36:02.944Z,96.5
2022-11-21T06:37:13.061Z,96.6
2022-11-21T06:38:23.165Z,96.6
2022-11-21T06:40:43.416Z,96.6
2022-11-21T06:41:53.540Z,96.8
2022-11-21T06:43:03.644Z,96.6
2022-11-21T06:44:13.767Z,96.6
2022-11-21T06:45:23.893Z,96.8
2022-11-21T06:46:34.003Z,96.6
2022-11-21T06:47:44.128Z,96.6
2022-11-21T06:48:54.255Z,96.6
2022-11-21T06:50:03.373Z,96.5
2022-11-21T06:51:13.496Z,96.5
2022-11-21T06:52:23.609Z,96.3
2022-11-21T06:53:33.738Z,96.2
2022-11-21T06:54:43.848Z,96.2
2022-11-21T06:55:53.977Z,96.1
2022-11-21T06:57:04.102Z,96.2
2022-11-21T06:58:14.206Z,96
2022-11-21T06:59:24.325Z,96.2
2022-11-21T07:00:34.451Z,96.1
2022-11-21T07:01:44.564Z,96.1
2022-11-21T07:02:54.688Z,96.1
2022-11-21T07:05:14.930Z,96
2022-11-21T07:06:25.174Z,95.9
2022-11-21T07:07:35.283Z,96
2022-11-21T07:08:45.408Z,95.9
2022-11-21T07:09:55.533Z,95.9
2022-11-21T07:11:05.648Z,96.2
2022-11-21T07:12:15.771Z,96.3
2022-11-21T07:13:25.878Z,96.2
2022-11-21T07:14:36.003Z,96.1
2022-11-21T07:15:46.112Z,96.1
2022-11-21T07:16:56.238Z,96
2022-11-21T07:18:06.350Z,96
2022-11-21T07:19:16.477Z,96
2022-11-21T07:20:26.604Z,95.9
2022-11-21T07:21:35.737Z,96
2022-11-21T07:22:45.844Z,95.8
2022-11-21T07:23:55.968Z,95.8
2022-11-21T07:25:06.079Z,95.8
2022-11-21T07:26:16.205Z,95.8
2022-11-21T07:27:26.318Z,95.8
2022-11-21T07:28:36.445Z,95.8
2022-11-21T07:29:46.566Z,95.9
2022-11-21T07:30:56.674Z,96.1
2022-11-21T07:32:06.801Z,96.5
2022-11-21T07:33:16.918Z,96.5
2022-11-21T07:34:27.030Z,96.5
2022-11-21T07:35:37.158Z,96.5
2022-11-21T07:36:46.297Z,96.3
2022-11-21T07:37:56.402Z,96.3
2022-11-21T07:39:06.533Z,96.3
2022-11-21T07:40:16.640Z,96.3
2022-11-21T07:41:26.760Z,96
2022-11-21T07:42:36.884Z,96.1
2022-11-21T07:43:47.012Z,95.7
2022-11-21T07:44:57.127Z,95.7
2022-11-21T07:46:07.235Z,95.7
2022-11-21T07:47:17.362Z,95.9
2022-11-21T07:48:27.488Z,95.9
2022-11-21T07:49:37.593Z,95.8
2022-11-21T07:50:47.716Z,95.9
2022-11-21T07:51:56.852Z,95.9
2022-11-21T07:53:06.961Z,95.9
2022-11-21T07:54:17.083Z,95.7
2022-11-21T07:55:27.217Z,95.8
2022-11-21T07:56:37.323Z,95.9
2022-11-21T07:57:47.449Z,96.2
2022-11-21T07:58:57.569Z,96.3
2022-11-21T08:00:07.682Z,95.7
2022-11-21T08:01:17.808Z,95.9
2022-11-21T08:02:27.915Z,95.8
2022-11-21T08:03:38.041Z,95.8
2022-11-21T08:04:48.166Z,95.8
2022-11-21T08:05:58.270Z,95.9
2022-11-21T08:07:07.419Z,95.9
2022-11-21T08:08:17.522Z,95.9
2022-11-21T08:09:27.645Z,96
2022-11-21T08:10:37.770Z,95.9
2022-11-21T08:11:47.887Z,96
2022-11-21T08:12:58.001Z,96.4
2022-11-21T08:14:08.130Z,96.4
2022-11-21T08:15:18.248Z,96.1
2022-11-21T08:16:28.355Z,96.3
2022-11-21T08:17:38.486Z,96.2
2022-11-21T08:18:48.605Z,95.8
2022-11-21T08:19:58.725Z,95.3
2022-11-21T08:21:08.841Z,94.9
2022-11-21T08:22:17.972Z,93.7
2022-11-21T08:23:28.095Z,93.4
2022-11-21T08:24:38.214Z,93
2022-11-21T08:25:48.337Z,92.5
2022-11-21T08:26:58.449Z,92.5
2022-11-21T08:28:08.573Z,91.8
2022-11-21T08:29:18.695Z,91.2
2022-11-21T08:30:28.799Z,91.3
2022-11-21T08:31:38.000Z,90.5
2022-11-21T08:32:49.042Z,90.7
2022-11-21T08:33:59.167Z,90.6
2022-11-21T08:35:09.274Z,90.2
2022-11-21T08:36:19.398Z,90.1
2022-11-21T08:37:28.533Z,90.4
2022-11-21T08:38:37.682Z,90
2022-11-21T08:39:46.818Z,89.3
2022-11-21T08:40:55.949Z,89.8
2022-11-21T08:42:06.075Z,89.5
2022-11-21T08:43:16.198Z,89
2022-11-21T08:44:26.300Z,88.9
2022-11-21T08:45:35.456Z,88.7
2022-11-21T08:46:45.698Z,87.7
2022-11-21T08:47:55.805Z,87.4
2022-11-21T08:49:05.923Z,87.6
2022-11-21T08:50:16.045Z,87.4
2022-11-21T08:51:26.175Z,87.7
2022-11-21T08:52:36.287Z,87.9
2022-11-21T08:53:46.402Z,88.2
2022-11-21T08:54:56.515Z,87.2
2022-11-21T08:56:06.640Z,88.3
2022-11-21T08:57:16.761Z,87.8
2022-11-21T08:58:26.868Z,88.5
2022-11-21T08:59:36.989Z,88.6
2022-11-21T09:00:47.000Z,88.8
2022-11-21T09:01:56.000Z,88
2022-11-21T09:03:06.362Z,88.4
2022-11-21T09:04:16.000Z,89.1
2022-11-21T09:05:26.598Z,89.8
2022-11-21T09:06:36.723Z,89.6
2022-11-21T09:07:46.829Z,89.8
2022-11-21T09:08:56.949Z,89.5
2022-11-21T09:10:07.076Z,89.5
2022-11-21T09:11:17.197Z,89
2022-11-21T09:12:27.316Z,88.5
2022-11-21T09:13:37.424Z,88.9
2022-11-21T09:14:47.550Z,88.8
2022-11-21T09:15:57.670Z,89.3
2022-11-21T09:17:06.794Z,89
2022-11-21T09:18:16.915Z,89.1
2022-11-21T09:19:27.035Z,89.1
2022-11-21T09:20:37.156Z,89.3
2022-11-21T09:21:47.279Z,89.1
2022-11-21T09:22:57.387Z,89.2
2022-11-21T09:24:07.517Z,89.2
2022-11-21T09:25:17.633Z,89
2022-11-21T09:26:27.757Z,89.2
2022-11-21T09:27:37.860Z,88.5
2022-11-21T09:28:47.986Z,89
2022-11-21T09:29:58.106Z,88.8
2022-11-21T09:31:08.233Z,88.9
2022-11-21T09:32:17.363Z,89
2022-11-21T09:33:27.480Z,88.9
2022-11-21T09:34:37.587Z,89.3
2022-11-21T09:35:47.709Z,88.8
2022-11-21T09:36:57.836Z,88.6
2022-11-21T09:38:07.952Z,88.8
2022-11-21T09:39:18.073Z,88.9
2022-11-21T09:40:28.196Z,89.1
2022-11-21T09:41:38.317Z,89.2
2022-11-21T09:42:48.425Z,89.4
2022-11-21T09:43:58.538Z,89.5
2022-11-21T09:45:08.663Z,89.6
2022-11-21T09:46:18.785Z,89.9
2022-11-21T09:47:27.921Z,89.8
2022-11-21T09:48:38.044Z,89.4
2022-11-21T09:49:48.145Z,89.7
2022-11-21T09:50:58.277Z,89.6
2022-11-21T09:52:08.398Z,89.4
2022-11-21T09:53:18.502Z,89.1
2022-11-21T09:54:28.631Z,88.7
2022-11-21T09:55:38.752Z,88.3
2022-11-21T09:56:48.872Z,88.2
2022-11-21T09:57:58.980Z,87.9
2022-11-21T09:59:09.102Z,88.4
2022-11-21T10:00:19.215Z,88.4
2022-11-21T10:01:29.341Z,87.9
2022-11-21T10:02:38.479Z,87.5
2022-11-21T10:03:48.586Z,87.4
2022-11-21T10:04:58.717Z,87.3
2022-11-21T10:06:08.841Z,87.7
2022-11-21T10:07:18.953Z,86.9
2022-11-21T10:08:29.073Z,86.7
2022-11-21T10:09:39.175Z,86.7
2022-11-21T10:10:49.307Z,86.4
2022-11-21T10:11:59.413Z,86.6
2022-11-21T10:13:09.542Z,86.9
2022-11-21T10:14:19.659Z,86.9
2022-11-21T10:15:29.778Z,85.9
2022-11-21T10:16:39.890Z,85.5
2022-11-21T10:17:49.020Z,85.8
2022-11-21T10:18:59.146Z,86.9
2022-11-21T10:20:09.256Z,85.8
2022-11-21T10:21:19.379Z,86.2
2022-11-21T10:22:29.503Z,85.8
2022-11-21T10:23:39.630Z,86.2
2022-11-21T10:24:49.739Z,86.2
2022-11-21T10:25:59.857Z,86
2022-11-21T10:27:09.985Z,86.9
2022-11-21T10:28:20.100Z,86.7
2022-11-21T10:29:30.208Z,87
2022-11-21T10:30:40.324Z,87.2
2022-11-21T10:31:50.451Z,87
2022-11-21T10:32:59.588Z,86.5
2022-11-21T10:34:09.696Z,85.7
2022-11-21T10:35:19.820Z,86.7
2022-11-21T10:36:29.943Z,87.5
2022-11-21T10:37:40.057Z,86.8
2022-11-21T10:38:50.179Z,86
2022-11-21T10:40:00.303Z,85.8
2022-11-21T10:41:10.411Z,85.9
2022-11-21T10:42:20.522Z,86.3
2022-11-21T10:43:30.647Z,85.8
2022-11-21T10:44:40.756Z,85.6
2022-11-21T10:45:50.886Z,85.7
2022-11-21T10:47:00.994Z,86
2022-11-21T10:48:10.129Z,85.3
2022-11-21T10:49:20.253Z,85.2
2022-11-21T10:50:30.380Z,85.5
2022-11-21T10:52:50.612Z,85.6
2022-11-21T10:54:00.735Z,85.8
2022-11-21T10:55:10.846Z,86
2022-11-21T10:56:20.971Z,86.4
2022-11-21T10:57:31.074Z,85.6
2022-11-21T10:58:41.200Z,85.3
2022-11-21T10:59:51.324Z,85.2
2022-11-21T11:01:01.443Z,84.7
2022-11-21T11:02:11.550Z,85.9
2022-11-21T11:03:20.688Z,85.5
2022-11-21T11:04:30.811Z,85.3
2022-11-21T11:05:40.933Z,85.6
2022-11-21T11:06:51.034Z,85.4
2022-11-21T11:08:01.153Z,86
2022-11-21T11:09:11.278Z,85.3
2022-11-21T11:10:21.402Z,84.7
2022-11-21T11:11:31.522Z,86.3
2022-11-21T11:13:51.744Z,85.8
2022-11-21T11:15:01.870Z,85.6
2022-11-21T11:17:22.110Z,85
2022-11-21T11:18:31.244Z,84.6
2022-11-21T11:19:41.353Z,84.8
2022-11-21T11:20:51.481Z,84.5
2022-11-21T11:22:01.601Z,84
2022-11-21T11:23:11.717Z,83.1
2022-11-21T11:24:21.835Z,83.5
2022-11-21T11:43:03.693Z,82.8
2022-11-21T11:44:12.850Z,82.8
2022-11-21T11:45:23.089Z,82.4
2022-11-21T11:46:33.195Z,82.5
2022-11-21T11:47:43.316Z,82.5
2022-11-21T11:48:53.440Z,83.1
2022-11-21T11:50:03.561Z,81.8
2022-11-21T11:51:13.682Z,82.5
2022-11-21T11:52:23.784Z,82.3
2022-11-21T11:53:33.915Z,82.1
2022-11-21T11:54:44.024Z,82.4
2022-11-21T11:55:54.149Z,82.1
2022-11-21T11:57:04.421Z,81.6
2022-11-21T11:58:13.556Z,80.5
2022-11-21T11:59:23.658Z,81.2
2022-11-21T12:00:33.782Z,82.8
2022-11-21T12:01:43.911Z,81.8
2022-11-21T12:02:54.015Z,82.4
2022-11-21T12:04:04.128Z,81.2
2022-11-21T12:05:14.256Z,81.1
2022-11-21T12:06:24.380Z,81.4
2022-11-21T12:07:34.490Z,81
2022-11-21T12:08:44.614Z,80.3
2022-11-21T12:09:53.748Z,81.1
2022-11-21T12:11:03.995Z,81.6
2022-11-21T12:12:14.116Z,81.7
2022-11-21T12:13:24.221Z,80.8
2022-11-21T12:14:34.352Z,80.8
2022-11-21T12:15:44.463Z,80.6
2022-11-21T12:16:54.575Z,80.9
2022-11-21T12:18:04.702Z,80.7
2022-11-21T12:19:14.827Z,81.4
2022-11-21T12:20:24.932Z,81.1
2022-11-21T12:21:35.054Z,81.1
2022-11-21T12:22:45.183Z,81.2
2022-11-21T12:23:55.292Z,80.9
2022-11-21T12:25:05.420Z,81.7
2022-11-21T12:26:14.549Z,82.4
2022-11-21T12:27:24.657Z,82.4
2022-11-21T12:28:34.776Z,82.4
2022-11-21T12:29:44.895Z,82.3
2022-11-21T12:30:55.020Z,83.1
2022-11-21T12:32:05.145Z,81.7
2022-11-21T12:33:15.249Z,81.5
2022-11-21T12:34:25.376Z,82.5
2022-11-21T12:35:35.500Z,81.6
2022-11-21T12:36:45.743Z,81.6
2022-11-21T12:37:55.848Z,81.9
2022-11-21T12:39:05.971Z,81.8
2022-11-21T12:40:16.096Z,82.4
2022-11-21T12:41:25.235Z,83.1
2022-11-21T12:42:34.374Z,83.6
2022-11-21T12:43:43.510Z,83.5
2022-11-21T12:44:52.639Z,82.9
2022-11-21T12:46:02.766Z,83.1
2022-11-21T12:47:12.875Z,83.4
2022-11-21T12:48:23.010Z,83.9
2022-11-21T12:49:33.116Z,84
2022-11-21T12:50:43.241Z,83.7
2022-11-21T12:51:53.365Z,83.7
2022-11-21T12:53:03.474Z,84.6
2022-11-21T12:54:13.600Z,83.9
2022-11-21T12:55:23.708Z,83.5
2022-11-21T12:56:33.837Z,83
2022-11-21T12:57:43.949Z,83.2
2022-11-21T12:58:54.056Z,82.4
2022-11-21T13:00:03.205Z,82.4
2022-11-21T13:01:13.313Z,82.7
2022-11-21T13:02:23.426Z,82.2
2022-11-21T13:03:33.549Z,82.1
2022-11-21T13:05:53.799Z,82
2022-11-21T13:07:03.912Z,81.6
2022-11-21T13:08:14.035Z,81.7
2022-11-21T13:09:24.143Z,83
2022-11-21T13:10:34.261Z,82.4
2022-11-21T13:11:44.382Z,82.2
2022-11-21T13:12:54.489Z,83.3
2022-11-21T13:14:04.617Z,83.5
2022-11-21T13:15:13.753Z,83.2
2022-11-21T13:16:23.877Z,83.3
2022-11-21T13:17:33.997Z,83.5
2022-11-21T13:18:44.115Z,85.3
2022-11-21T13:19:54.217Z,84
2022-11-21T13:21:04.336Z,84.8
2022-11-21T13:22:14.461Z,84.3
2022-11-21T13:23:24.581Z,84.3
2022-11-21T13:24:34.690Z,83.8
2022-11-21T13:25:44.816Z,83.6
2022-11-21T13:26:54.933Z,83.8
2022-11-21T13:28:05.053Z,84.1
2022-11-21T13:29:15.169Z,83.5
2022-11-21T13:30:24.298Z,83.7
2022-11-21T13:31:34.431Z,84.2
2022-11-21T13:32:44.538Z,84.3
2022-11-21T13:33:54.659Z,83.8
2022-11-21T13:35:04.000Z,84.2
2022-11-21T13:36:14.896Z,84.3
2022-11-21T13:37:25.006Z,84.6
2022-11-21T13:38:35.132Z,84.4
2022-11-21T13:39:45.258Z,84.8
2022-11-21T13:40:55.361Z,84.5
2022-11-21T13:42:05.488Z,85.2
2022-11-21T13:43:15.601Z,85.2
2022-11-21T13:44:25.720Z,85.5
2022-11-21T13:45:35.958Z,85.2
2022-11-21T13:46:46.000Z,84
2022-11-21T13:47:56.191Z,84.9
2022-11-21T13:49:06.317Z,85.7
2022-11-21T13:50:16.437Z,85.9
2022-11-21T13:51:26.556Z,86
2022-11-21T13:52:36.665Z,86
2022-11-21T13:53:46.795Z,86.3
2022-11-21T13:54:56.916Z,86.6
2022-11-21T13:56:07.020Z,87.1
2022-11-21T13:57:17.134Z,87
2022-11-21T13:58:27.257Z,87.3
2022-11-21T13:59:37.375Z,86.9
2022-11-21T14:00:46.514Z,86.4
2022-11-21T14:01:56.635Z,86.2
2022-11-21T14:03:06.746Z,86.6
2022-11-21T14:04:16.875Z,86.2
2022-11-21T14:05:26.995Z,85.9
2022-11-21T14:06:37.098Z,86.6
2022-11-21T14:07:47.227Z,86.5
2022-11-21T14:08:57.347Z,87.1
2022-11-21T14:10:07.453Z,87.2
2022-11-21T14:12:27.703Z,87
2022-11-21T14:13:37.821Z,87.2
2022-11-21T14:14:47.929Z,87.8
2022-11-21T14:15:57.066Z,87.6
2022-11-21T14:17:07.189Z,86.6
2022-11-21T14:18:17.317Z,86.2
2022-11-21T14:19:27.423Z,86.3
2022-11-21T14:20:37.543Z,86.5
2022-11-21T14:21:47.672Z,87
2022-11-21T14:22:56.808Z,86.3
2022-11-21T14:24:04.984Z,86.7
2022-11-21T14:25:16.063Z,87.1
2022-11-21T14:26:26.330Z,87.5
2022-11-21T14:27:35.454Z,87.4
2022-11-21T14:28:45.578Z,87.4
2022-11-21T14:29:55.698Z,87.2
2022-11-21T14:31:05.822Z,87.3
2022-11-21T14:32:15.928Z,87.7
2022-11-21T14:33:26.054Z,87.9
2022-11-21T14:34:36.174Z,87.9
2022-11-21T14:35:46.292Z,86.9
2022-11-21T14:36:56.395Z,87.6
2022-11-21T14:38:06.523Z,87.3
2022-11-21T14:39:16.634Z,87.8
2022-11-21T14:40:26.756Z,87.5
2022-11-21T14:41:36.872Z,87.5
2022-11-21T14:42:46.017Z,87.8
2022-11-21T14:43:56.125Z,88
2022-11-21T14:45:06.241Z,88.1
2022-11-21T14:46:16.363Z,88.1
2022-11-21T14:47:26.486Z,88.2
2022-11-21T14:48:36.612Z,88.5
2022-11-21T14:49:46.730Z,88.7
2022-11-21T14:50:56.984Z,88.9
2022-11-21T14:52:06.116Z,89.5
2022-11-21T14:55:36.468Z,89.8
2022-11-21T14:57:56.852Z,90.5
2022-11-21T14:59:05.999Z,90.6
2022-11-21T15:00:15.137Z,90.7
2022-11-21T15:01:25.263Z,91
2022-11-21T15:02:35.379Z,91
2022-11-21T15:04:55.609Z,91.6
2022-11-21T15:06:05.729Z,91.6
2022-11-21T15:07:15.847Z,91.6
2022-11-21T15:08:25.968Z,91.6
2022-11-21T15:09:36.086Z,91.8
2022-11-21T15:10:46.216Z,92
2022-11-21T15:11:56.324Z,92.2
2022-11-21T15:13:06.445Z,92.2
2022-11-21T15:14:16.573Z,92
2022-11-21T15:15:26.801Z,92
2022-11-21T15:16:36.931Z,92.3
2022-11-21T15:17:47.040Z,92.6
2022-11-21T15:18:57.168Z,93.1
2022-11-21T15:20:07.286Z,92.9
2022-11-21T15:21:17.393Z,93
2022-11-21T15:22:27.519Z,93.1
2022-11-21T15:23:37.624Z,93.3
2022-11-21T15:24:47.750Z,93.3
2022-11-21T15:25:57.876Z,93.3
2022-11-21T15:27:07.981Z,93.3
2022-11-21T15:28:18.110Z,93.3
2022-11-21T15:29:28.230Z,93.5
2022-11-21T15:30:37.357Z,93.7
2022-11-21T15:31:47.488Z,94
2022-11-21T15:32:57.602Z,94.2
2022-11-21T15:34:07.719Z,94.1
2022-11-21T15:35:17.842Z,94
2022-11-21T15:36:27.965Z,94
2022-11-21T15:37:38.078Z,94.4
2022-11-21T15:39:57.345Z,94.9
2022-11-21T15:41:06.489Z,95.3
2022-11-21T15:42:15.611Z,95.6
2022-11-21T15:43:24.764Z,95.5
2022-11-21T15:44:33.907Z,95.8
2022-11-21T15:45:44.012Z,95.9
2022-11-21T15:46:54.135Z,95.8
2022-11-21T15:48:04.248Z,95.7
2022-11-21T15:49:14.367Z,95.4
2022-11-21T15:50:24.487Z,95.7
2022-11-21T15:51:34.617Z,96
2022-11-21T15:52:44.732Z,95.9
2022-11-21T15:53:54.854Z,95.8
2022-11-21T15:55:04.961Z,96
2022-11-21T15:56:15.084Z,95.7
2022-11-21T15:57:25.205Z,95.7
2022-11-21T15:58:35.330Z,95.6
2022-11-21T15:59:44.464Z,95.8
2022-11-21T16:00:54.583Z,96.4
2022-11-21T16:02:04.705Z,96.5
2022-11-21T16:03:14.820Z,96.4
2022-11-21T16:04:24.940Z,96.8
2022-11-21T16:05:35.060Z,96.8
2022-11-21T16:06:45.179Z,96.8
2022-11-21T16:07:55.287Z,96.7
2022-11-21T16:09:04.443Z,96.9
2022-11-21T16:10:13.562Z,96.8
2022-11-21T16:11:22.722Z,97
2022-11-21T16:12:31.852Z,97
2022-11-21T16:13:41.971Z,96.8
2022-11-21T16:14:52.092Z,96.6
2022-11-21T16:16:02.211Z,96.8
2022-11-21T16:17:12.334Z,97
2022-11-21T16:18:22.443Z,97
2022-11-21T16:19:32.561Z,97
2022-11-21T16:20:42.683Z,97.1
2022-11-21T16:21:52.805Z,96.8